Time;durP1;ratioP1;P1;durP2;ratioP2;P2;SDS_P1;SDS_P2;PMS_P1;PMS_P2;Temp;Humidity;BMP_temperature;BMP_pressure;BME280_temperature;BME280_humidity;BME280_pressure;Samples;Min_cycle;Max_cycle;Signal;HPM_P1;HPM_P2
2022/05/22 00:02:05;;;;;;;3.78;1.40;;;17.90;63.50;;;;;;5017987;28;20439;-84
2022/05/22 00:04:32;;;;;;;5.63;1.98;;;17.90;63.70;;;;;;5016938;28;20507;-85
2022/05/22 00:06:57;;;;;;;8.07;1.90;;;17.90;63.50;;;;;;4998471;28;20024;-84
2022/05/22 00:09:28;;;;;;;3.42;1.50;;;17.90;63.90;;;;;;5016364;28;20026;-85
2022/05/22 00:11:54;;;;;;;3.67;1.45;;;17.90;63.90;;;;;;5016154;28;20018;-85
2022/05/22 00:14:21;;;;;;;5.00;2.28;;;17.90;63.50;;;;;;5016197;28;20657;-85
2022/05/22 00:16:47;;;;;;;9.65;2.60;;;17.90;64.70;;;;;;5016374;28;20030;-85
2022/05/22 00:19:22;;;;;;;5.18;1.70;;;17.80;64.10;;;;;;4998320;28;20034;-83
2022/05/22 00:21:48;;;;;;;6.15;1.80;;;17.70;64.60;;;;;;5032923;28;20029;-82
2022/05/22 00:24:30;;;;;;;5.18;2.03;;;17.70;65.40;;;;;;5056956;28;20506;-85
2022/05/22 00:26:57;;;;;;;6.28;1.73;;;17.60;65.40;;;;;;5051360;28;20522;-82
2022/05/22 00:29:23;;;;;;;6.63;1.65;;;17.60;66.00;;;;;;5050475;28;20112;-83
2022/05/22 00:31:49;;;;;;;5.95;1.67;;;17.60;65.90;;;;;;5050512;28;20491;-83
2022/05/22 00:34:15;;;;;;;5.95;1.30;;;17.60;66.20;;;;;;5082552;28;20090;-83
2022/05/22 00:36:40;;;;;;;2.13;1.30;;;17.60;66.30;;;;;;5050575;28;20565;-82
2022/05/22 00:39:06;;;;;;;7.00;1.98;;;17.50;66.70;;;;;;5050875;28;20112;-83
2022/05/22 00:41:33;;;;;;;8.10;2.03;;;17.60;66.80;;;;;;5050377;28;20029;-82
2022/05/22 00:44:01;;;;;;;4.72;1.58;;;17.50;66.90;;;;;;5050428;28;20033;-83
2022/05/22 00:46:29;;;;;;;2.97;1.60;;;17.50;67.10;;;;;;5050108;28;20025;-83
2022/05/22 00:49:10;;;;;;;4.13;1.50;;;17.50;67.60;;;;;;5049997;28;20111;-83
2022/05/22 00:51:49;;;;;;;3.53;1.85;;;17.30;68.20;;;;;;5050156;28;20104;-83
2022/05/22 00:54:31;;;;;;;4.88;1.98;;;17.30;68.40;;;;;;5049873;28;20032;-82
2022/05/22 00:57:05;;;;;;;7.72;1.48;;;17.30;68.40;;;;;;5050577;28;20029;-82
2022/05/22 00:59:39;;;;;;;4.88;1.77;;;17.30;68.30;;;;;;5049992;28;20107;-83
2022/05/22 01:02:06;;;;;;;4.93;1.77;;;17.40;67.90;;;;;;5050795;28;20124;-85
2022/05/22 01:04:34;;;;;;;5.57;2.00;;;17.40;67.90;;;;;;5049701;28;20029;-82
2022/05/22 01:07:01;;;;;;;7.22;1.90;;;17.40;68.00;;;;;;5050535;28;20064;-83
2022/05/22 01:09:27;;;;;;;8.52;1.90;;;17.50;67.90;;;;;;5049486;28;20477;-83
2022/05/22 01:12:08;;;;;;;4.72;2.08;;;17.50;68.00;;;;;;5049426;28;20022;-82
2022/05/22 01:14:35;;;;;;;5.55;1.70;;;17.50;68.10;;;;;;5050042;28;20039;-82
2022/05/22 01:17:07;;;;;;;3.95;1.98;;;17.40;68.10;;;;;;5049570;28;20099;-82
2022/05/22 01:19:33;;;;;;;4.45;2.08;;;17.40;68.60;;;;;;5049723;28;20034;-85
2022/05/22 01:22:04;;;;;;;7.53;2.45;;;17.30;69.00;;;;;;5085890;28;20028;-85
2022/05/22 01:24:31;;;;;;;6.22;2.30;;;17.30;68.80;;;;;;5075406;28;20052;-82
2022/05/22 01:27:00;;;;;;;5.75;2.05;;;17.30;68.70;;;;;;5067347;28;20021;-83
2022/05/22 01:29:28;;;;;;;7.72;1.92;;;17.30;68.70;;;;;;5052351;28;20029;-83
2022/05/22 01:31:54;;;;;;;4.78;1.65;;;17.40;68.40;;;;;;5049604;28;20021;-83
2022/05/22 01:34:20;;;;;;;8.43;2.28;;;17.40;68.40;;;;;;5044518;28;20040;-83
2022/05/22 01:36:45;;;;;;;7.20;2.17;;;17.40;68.10;;;;;;5036669;28;20036;-82
2022/05/22 01:39:12;;;;;;;4.55;1.98;;;17.40;68.40;;;;;;5036006;28;20041;-82
2022/05/22 01:41:38;;;;;;;6.43;1.77;;;17.40;68.30;;;;;;5036346;28;20113;-82
2022/05/22 01:44:04;;;;;;;6.10;2.00;;;17.40;68.00;;;;;;5035626;28;20408;-82
2022/05/22 01:46:30;;;;;;;5.03;1.88;;;17.40;67.80;;;;;;5050248;28;20364;-83
2022/05/22 01:48:56;;;;;;;6.50;2.22;;;17.40;67.90;;;;;;5055900;28;20048;-83
2022/05/22 01:51:22;;;;;;;2.90;1.55;;;17.40;68.10;;;;;;5053604;28;20032;-82
2022/05/22 01:53:48;;;;;;;5.55;1.95;;;17.30;68.70;;;;;;5036443;28;20044;-82
2022/05/22 01:56:13;;;;;;;6.88;2.30;;;17.30;68.70;;;;;;5035628;28;20104;-82
2022/05/22 01:58:39;;;;;;;5.35;2.38;;;17.40;68.60;;;;;;5039154;28;20521;-83
2022/05/22 02:01:08;;;;;;;3.83;2.00;;;17.30;68.70;;;;;;5055450;28;20028;-83
2022/05/22 02:03:33;;;;;;;4.72;2.00;;;17.30;69.00;;;;;;5053822;28;20120;-83
2022/05/22 02:05:59;;;;;;;3.90;2.17;;;17.30;69.00;;;;;;5055838;28;20060;-82
2022/05/22 02:08:26;;;;;;;6.60;1.92;;;17.30;69.30;;;;;;5050023;28;20142;-83
2022/05/22 02:11:00;;;;;;;8.57;2.22;;;17.30;69.30;;;;;;5051243;28;20022;-82
2022/05/22 02:13:30;;;;;;;5.88;2.00;;;17.20;69.70;;;;;;5050434;28;20036;-83
2022/05/22 02:15:56;;;;;;;4.78;1.48;;;17.20;69.50;;;;;;5035782;28;20032;-82
2022/05/22 02:18:22;;;;;;;5.22;1.88;;;17.20;69.40;;;;;;5034090;28;20041;-82
2022/05/22 02:20:48;;;;;;;8.57;2.03;;;17.20;69.70;;;;;;5050708;28;20512;-82
2022/05/22 02:23:15;;;;;;;4.53;1.80;;;17.20;69.50;;;;;;5062232;28;20097;-82
2022/05/22 02:25:46;;;;;;;6.22;2.22;;;17.20;69.30;;;;;;5053626;28;20025;-82
2022/05/22 02:28:14;;;;;;;5.00;2.03;;;17.20;69.40;;;;;;5036011;28;20053;-83
2022/05/22 02:30:42;;;;;;;8.60;2.63;;;17.20;69.30;;;;;;5035037;28;20276;-83
2022/05/22 02:33:10;;;;;;;8.23;2.47;;;17.20;69.30;;;;;;5035689;28;20445;-83
2022/05/22 02:35:36;;;;;;;5.93;2.33;;;17.20;69.10;;;;;;5035171;28;20061;-85
2022/05/22 02:38:02;;;;;;;3.72;2.15;;;17.20;69.00;;;;;;5035350;28;20076;-83
2022/05/22 02:40:30;;;;;;;4.00;1.77;;;17.20;69.10;;;;;;5034280;28;20036;-85
2022/05/22 02:42:56;;;;;;;7.60;1.90;;;17.10;69.00;;;;;;5034694;28;20160;-82
2022/05/22 02:45:25;;;;;;;3.13;1.98;;;17.10;69.10;;;;;;5049528;28;20053;-82
2022/05/22 02:47:51;;;;;;;6.55;2.15;;;17.10;69.00;;;;;;5053817;28;20104;-82
2022/05/22 02:50:20;;;;;;;5.85;2.20;;;17.10;69.00;;;;;;5055355;28;20100;-85
2022/05/22 02:52:46;;;;;;;2.17;1.65;;;17.10;69.00;;;;;;5045529;28;20091;-83
2022/05/22 02:55:12;;;;;;;2.60;1.80;;;17.10;69.10;;;;;;5033654;28;20026;-84
2022/05/22 02:57:40;;;;;;;6.03;2.13;;;17.10;69.10;;;;;;5034354;28;20064;-84
2022/05/22 03:00:18;;;;;;;3.22;1.70;;;17.00;69.10;;;;;;5034193;28;20049;-85
2022/05/22 03:02:44;;;;;;;7.32;2.00;;;17.10;69.20;;;;;;5034695;28;20029;-84
2022/05/22 03:05:11;;;;;;;4.53;2.35;;;17.00;69.20;;;;;;5034319;28;20024;-84
2022/05/22 03:07:37;;;;;;;6.65;1.90;;;16.90;69.50;;;;;;5035083;28;20862;-85
2022/05/22 03:10:09;;;;;;;5.85;1.90;;;17.00;69.40;;;;;;5034214;28;20100;-85
2022/05/22 03:12:35;;;;;;;6.70;1.88;;;16.90;69.20;;;;;;5034818;28;20037;-84
2022/05/22 03:15:03;;;;;;;5.80;2.03;;;17.00;68.80;;;;;;5032807;28;20030;-84
2022/05/22 03:17:29;;;;;;;3.97;2.35;;;17.10;69.00;;;;;;5032856;28;20056;-84
2022/05/22 03:19:54;;;;;;;6.97;1.75;;;17.10;68.40;;;;;;5035012;28;20052;-85
2022/05/22 03:22:20;;;;;;;6.45;1.98;;;17.20;68.20;;;;;;5063566;28;20084;-84
2022/05/22 03:24:47;;;;;;;5.97;1.90;;;17.10;68.40;;;;;;5035015;28;20029;-82
2022/05/22 03:27:15;;;;;;;6.50;2.15;;;17.10;68.40;;;;;;5034085;28;20052;-84
2022/05/22 03:29:42;;;;;;;4.75;1.48;;;17.20;68.30;;;;;;5033492;28;20101;-84
2022/05/22 03:32:08;;;;;;;3.80;1.65;;;17.20;68.40;;;;;;5033930;28;20099;-84
2022/05/22 03:34:34;;;;;;;3.45;1.90;;;17.20;68.20;;;;;;5032908;28;20559;-85
2022/05/22 03:37:00;;;;;;;6.35;1.52;;;17.20;67.90;;;;;;5042444;28;20119;-84
2022/05/22 03:39:27;;;;;;;2.67;1.75;;;17.10;68.60;;;;;;5053721;28;20510;-84
2022/05/22 03:41:53;;;;;;;4.15;1.50;;;17.20;68.10;;;;;;5054245;28;20028;-84
2022/05/22 03:44:19;;;;;;;3.72;1.30;;;17.10;68.20;;;;;;5053501;28;20037;-84
2022/05/22 03:46:45;;;;;;;5.72;1.60;;;17.20;67.60;;;;;;5051336;28;20032;-84
2022/05/22 03:49:11;;;;;;;5.10;1.88;;;17.10;68.00;;;;;;5049131;28;20036;-85
2022/05/22 03:51:38;;;;;;;3.08;1.60;;;17.10;67.90;;;;;;5033977;28;20028;-84
2022/05/22 03:54:05;;;;;;;6.43;2.40;;;17.10;67.80;;;;;;5032447;28;20034;-84
2022/05/22 03:56:30;;;;;;;2.72;1.33;;;17.10;68.10;;;;;;5032813;28;20545;-85
2022/05/22 03:58:56;;;;;;;4.13;1.73;;;16.90;68.70;;;;;;5033918;28;20104;-84
2022/05/22 04:01:22;;;;;;;4.53;1.80;;;16.90;68.90;;;;;;5033431;28;20068;-85
2022/05/22 04:03:48;;;;;;;6.32;1.90;;;16.90;68.60;;;;;;5033936;28;20395;-84
2022/05/22 04:06:13;;;;;;;3.63;1.75;;;16.90;69.10;;;;;;5046291;28;20039;-84
2022/05/22 04:08:39;;;;;;;5.35;1.58;;;16.90;69.00;;;;;;5053760;28;20025;-84
2022/05/22 04:11:08;;;;;;;3.05;1.70;;;16.90;68.80;;;;;;5052494;28;20029;-84
2022/05/22 04:13:33;;;;;;;3.08;1.40;;;16.90;68.90;;;;;;5046007;28;20479;-84
2022/05/22 04:15:59;;;;;;;5.68;1.60;;;16.90;68.50;;;;;;5033265;28;20123;-84
2022/05/22 04:18:25;;;;;;;8.75;2.03;;;16.90;68.60;;;;;;5046234;28;20032;-84
2022/05/22 04:20:51;;;;;;;6.78;1.80;;;16.90;68.40;;;;;;5062363;28;20163;-85
2022/05/22 04:26:01;;;;;;;6.10;1.65;;;16.90;69.00;;;;;;5053484;28;20049;-84
2022/05/22 04:28:28;;;;;;;5.40;1.63;;;16.90;68.80;;;;;;5032045;28;20022;-85
2022/05/22 04:30:55;;;;;;;8.15;1.88;;;17.00;68.20;;;;;;5033404;28;20035;-84
2022/05/22 04:33:20;;;;;;;3.55;1.85;;;16.90;68.60;;;;;;5052606;28;20033;-85
2022/05/22 04:35:47;;;;;;;4.60;1.77;;;17.00;68.70;;;;;;5045396;28;20088;-84
2022/05/22 04:38:13;;;;;;;4.38;1.70;;;17.00;68.40;;;;;;5032052;28;20369;-84
2022/05/22 04:40:40;;;;;;;5.95;2.00;;;17.00;68.30;;;;;;5031917;28;20034;-84
2022/05/22 04:43:05;;;;;;;5.07;1.73;;;17.00;68.50;;;;;;5040527;28;20095;-84
2022/05/22 04:45:32;;;;;;;5.40;1.85;;;17.00;68.10;;;;;;5053071;28;20037;-84
2022/05/22 04:47:58;;;;;;;7.18;1.98;;;17.10;68.80;;;;;;5052867;28;20032;-85
2022/05/22 04:50:24;;;;;;;7.78;1.77;;;17.00;68.80;;;;;;5053599;28;20025;-85
2022/05/22 04:52:50;;;;;;;7.10;2.40;;;17.00;68.30;;;;;;5044421;28;20044;-84
2022/05/22 04:55:16;;;;;;;2.63;1.67;;;17.10;68.30;;;;;;5032834;28;20029;-84
2022/05/22 04:57:43;;;;;;;6.07;1.70;;;17.10;68.30;;;;;;5032930;28;20036;-84
2022/05/22 05:00:10;;;;;;;4.57;1.42;;;17.10;68.50;;;;;;5031795;28;20029;-84
2022/05/22 05:02:37;;;;;;;3.70;1.80;;;17.10;68.50;;;;;;5043518;28;20064;-84
2022/05/22 05:05:05;;;;;;;7.95;2.10;;;17.20;68.30;;;;;;5052676;28;20104;-84
2022/05/22 05:07:32;;;;;;;4.30;1.85;;;17.20;68.30;;;;;;5052370;28;20059;-84
2022/05/22 05:09:58;;;;;;;4.35;1.75;;;17.30;68.30;;;;;;5054179;28;20498;-83
2022/05/22 05:12:24;;;;;;;8.70;2.08;;;17.30;67.90;;;;;;5049643;28;20487;-84
2022/05/22 05:14:50;;;;;;;2.65;1.38;;;17.30;68.20;;;;;;5054865;28;20098;-84
2022/05/22 05:17:17;;;;;;;4.63;1.83;;;17.30;68.30;;;;;;5053740;28;20033;-84
2022/05/22 05:19:44;;;;;;;3.72;1.65;;;17.30;68.30;;;;;;5039700;28;20053;-84
2022/05/22 05:22:10;;;;;;;4.97;1.85;;;17.30;68.10;;;;;;5075628;28;20043;-84
2022/05/22 05:24:36;;;;;;;8.15;1.38;;;17.30;68.00;;;;;;5042492;28;20108;-84
2022/05/22 05:27:02;;;;;;;3.95;1.65;;;17.30;68.20;;;;;;5040425;28;20118;-84
2022/05/22 05:29:28;;;;;;;3.42;1.50;;;17.40;68.30;;;;;;5056092;28;20029;-84
2022/05/22 05:31:54;;;;;;;7.70;1.95;;;17.50;68.00;;;;;;5055580;28;20025;-84
2022/05/22 05:34:20;;;;;;;3.88;1.40;;;17.50;68.00;;;;;;5041420;28;20087;-84
2022/05/22 05:36:46;;;;;;;5.13;1.80;;;17.60;68.30;;;;;;5039733;28;20025;-85
2022/05/22 05:39:12;;;;;;;5.43;2.70;;;17.60;68.20;;;;;;5054061;28;20025;-84
2022/05/22 05:41:38;;;;;;;5.10;2.05;;;17.70;68.30;;;;;;5035878;28;20052;-83
2022/05/22 05:44:08;;;;;;;5.00;1.33;;;17.80;68.00;;;;;;5035779;28;20483;-84
2022/05/22 05:46:38;;;;;;;9.00;1.65;;;17.80;67.50;;;;;;5035955;28;20030;-84
2022/05/22 05:49:05;;;;;;;3.88;1.77;;;17.90;67.60;;;;;;5035624;28;20056;-84
2022/05/22 05:51:31;;;;;;;4.88;2.00;;;18.00;67.50;;;;;;5034044;28;20052;-84
2022/05/22 05:53:57;;;;;;;5.80;1.88;;;18.10;66.90;;;;;;5034393;28;20021;-84
2022/05/22 05:56:23;;;;;;;5.63;2.25;;;18.10;66.70;;;;;;5035542;28;20121;-84
2022/05/22 05:58:49;;;;;;;4.72;1.85;;;18.10;66.70;;;;;;5035485;28;20061;-84
2022/05/22 06:01:17;;;;;;;4.40;1.58;;;18.10;66.70;;;;;;5035640;28;20037;-84
2022/05/22 06:03:44;;;;;;;5.35;1.42;;;18.10;67.10;;;;;;5035294;28;20448;-84
2022/05/22 06:06:10;;;;;;;3.25;2.10;;;18.10;67.40;;;;;;5034421;28;20017;-84
2022/05/22 06:08:37;;;;;;;2.83;1.55;;;18.20;67.10;;;;;;5033999;28;20527;-84
2022/05/22 06:11:02;;;;;;;5.25;1.55;;;18.30;67.40;;;;;;5039575;28;20033;-85
2022/05/22 06:13:28;;;;;;;8.73;2.50;;;18.30;67.10;;;;;;5055365;28;20039;-85
2022/05/22 06:15:54;;;;;;;3.47;1.58;;;18.40;67.00;;;;;;5055593;28;20067;-84
2022/05/22 06:18:20;;;;;;;3.58;1.70;;;18.50;66.90;;;;;;5049623;28;20037;-84
2022/05/22 06:20:46;;;;;;;6.25;1.92;;;18.50;67.00;;;;;;5051380;28;20032;-83
2022/05/22 06:23:12;;;;;;;9.00;1.80;;;18.60;66.40;;;;;;5073380;28;20135;-81
2022/05/22 06:25:41;;;;;;;6.32;2.10;;;18.60;67.10;;;;;;5046580;28;20506;-83
2022/05/22 06:28:06;;;;;;;6.07;1.85;;;18.60;66.40;;;;;;5037598;28;20022;-82
2022/05/22 06:30:32;;;;;;;5.15;2.00;;;18.70;66.30;;;;;;5036321;28;20196;-82
2022/05/22 06:33:00;;;;;;;5.53;1.65;;;18.70;65.90;;;;;;5052843;28;20021;-82
2022/05/22 06:35:25;;;;;;;3.53;1.95;;;18.80;65.60;;;;;;5052690;28;20029;-82
2022/05/22 06:37:51;;;;;;;3.47;1.50;;;18.80;66.20;;;;;;5054162;28;20032;-86
2022/05/22 06:40:17;;;;;;;3.70;1.77;;;18.80;65.70;;;;;;5052763;28;20041;-89
2022/05/22 06:42:44;;;;;;;5.43;1.75;;;18.90;65.40;;;;;;5053833;28;20025;-80
2022/05/22 06:45:22;;;;;;;3.63;1.92;;;18.90;65.20;;;;;;5052212;28;20027;-83
2022/05/22 06:47:49;;;;;;;3.67;2.00;;;19.00;64.90;;;;;;5046775;28;20029;-82
2022/05/22 06:50:17;;;;;;;5.55;1.80;;;19.10;64.60;;;;;;5051977;28;20048;-80
2022/05/22 06:52:43;;;;;;;4.45;2.00;;;19.10;64.70;;;;;;5038453;28;20059;-76
2022/05/22 06:55:09;;;;;;;6.25;1.60;;;19.10;64.30;;;;;;5034582;28;20466;-75
2022/05/22 06:57:35;;;;;;;7.68;2.00;;;19.10;64.70;;;;;;5034438;28;20026;-76
2022/05/22 07:00:03;;;;;;;4.78;1.90;;;19.20;64.50;;;;;;5046947;28;20557;-76
2022/05/22 07:02:28;;;;;;;6.90;1.90;;;19.20;64.30;;;;;;5054384;28;20107;-77
2022/05/22 07:05:01;;;;;;;7.00;2.08;;;19.20;64.40;;;;;;5054780;28;20116;-76
2022/05/22 07:07:27;;;;;;;4.93;1.63;;;19.20;64.60;;;;;;5066770;28;20025;-76
2022/05/22 07:09:53;;;;;;;4.65;1.77;;;19.10;64.80;;;;;;5051483;28;20399;-80
2022/05/22 07:12:19;;;;;;;4.93;1.60;;;19.00;65.10;;;;;;5040654;28;20694;-77
2022/05/22 07:14:48;;;;;;;2.88;1.88;;;19.00;65.30;;;;;;5023669;28;20013;-76
2022/05/22 07:17:15;;;;;;;7.57;1.65;;;18.80;65.70;;;;;;5032004;28;20021;-77
2022/05/22 07:19:42;;;;;;;6.53;1.58;;;18.90;65.50;;;;;;5030238;28;20030;-77
2022/05/22 07:22:08;;;;;;;3.97;1.50;;;18.80;65.80;;;;;;5033469;28;20031;-76
2022/05/22 07:24:34;;;;;;;4.03;1.70;;;18.80;65.90;;;;;;5017357;28;20645;-75
2022/05/22 07:27:01;;;;;;;5.82;1.90;;;18.80;65.70;;;;;;5024967;28;21007;-75
2022/05/22 07:29:27;;;;;;;2.50;1.55;;;18.80;65.60;;;;;;5028806;28;20028;-75
2022/05/22 07:31:54;;;;;;;2.33;1.60;;;18.80;65.80;;;;;;5021357;28;20026;-75
2022/05/22 07:34:21;;;;;;;4.05;1.95;;;18.80;66.00;;;;;;5033626;28;20591;-75
2022/05/22 07:36:46;;;;;;;4.05;1.58;;;18.80;66.10;;;;;;5017665;28;20117;-75
2022/05/22 07:39:12;;;;;;;3.70;1.52;;;18.90;65.80;;;;;;5024797;28;20132;-75
2022/05/22 07:41:38;;;;;;;5.20;1.50;;;19.00;65.90;;;;;;5032838;28;20040;-75
2022/05/22 07:44:04;;;;;;;5.38;1.88;;;19.20;65.70;;;;;;5043310;28;20078;-76
2022/05/22 07:46:29;;;;;;;3.60;1.50;;;19.30;65.00;;;;;;5013706;28;20444;-76
2022/05/22 07:48:55;;;;;;;4.55;2.42;;;19.30;64.90;;;;;;5013799;28;20029;-76
2022/05/22 07:51:21;;;;;;;1.92;1.30;;;19.30;64.90;;;;;;5014942;28;20059;-76
2022/05/22 07:53:47;;;;;;;4.93;1.67;;;19.30;65.10;;;;;;5039106;28;20026;-75
2022/05/22 07:56:13;;;;;;;2.70;1.48;;;19.30;64.70;;;;;;5043618;28;20437;-76
2022/05/22 07:58:39;;;;;;;5.57;1.85;;;19.30;65.40;;;;;;5042913;28;20037;-76
2022/05/22 08:01:06;;;;;;;7.20;1.80;;;19.30;65.30;;;;;;5031513;28;20405;-76
2022/05/22 08:03:32;;;;;;;4.70;1.95;;;19.40;65.20;;;;;;5033713;28;20043;-76
2022/05/22 08:05:58;;;;;;;3.55;1.92;;;19.30;65.60;;;;;;5033373;28;20037;-76
2022/05/22 08:08:24;;;;;;;4.65;1.52;;;19.40;65.70;;;;;;5031242;28;20516;-76
2022/05/22 08:10:51;;;;;;;4.97;2.05;;;19.40;65.80;;;;;;5021664;28;20037;-76
2022/05/22 08:13:17;;;;;;;3.22;1.88;;;19.40;65.60;;;;;;5034097;28;20557;-78
2022/05/22 08:15:43;;;;;;;2.70;1.60;;;19.40;65.70;;;;;;5027938;28;20068;-77
2022/05/22 08:18:10;;;;;;;4.97;1.77;;;19.40;65.90;;;;;;5026837;28;20026;-77
2022/05/22 08:20:39;;;;;;;3.00;1.48;;;19.40;65.90;;;;;;5020534;28;20033;-74
2022/05/22 08:23:09;;;;;;;7.05;1.77;;;19.50;65.80;;;;;;5030379;28;20045;-78
2022/05/22 08:25:35;;;;;;;4.20;1.33;;;19.40;66.20;;;;;;5029063;28;20064;-78
2022/05/22 08:28:01;;;;;;;4.47;1.73;;;19.50;66.00;;;;;;5026113;28;20026;-77
2022/05/22 08:30:29;;;;;;;5.18;1.73;;;19.40;65.90;;;;;;5026162;28;20036;-77
2022/05/22 08:32:55;;;;;;;6.10;1.55;;;19.40;65.70;;;;;;5028009;28;20017;-76
2022/05/22 08:35:24;;;;;;;4.00;1.50;;;19.50;65.50;;;;;;5032003;28;20033;-76
2022/05/22 08:37:50;;;;;;;4.13;1.48;;;19.50;65.70;;;;;;5025599;28;21155;-76
2022/05/22 08:40:18;;;;;;;6.38;2.95;;;19.60;66.10;;;;;;5029030;28;20102;-76
2022/05/22 08:43:07;;;;;;;4.57;1.95;;;19.60;65.10;;;;;;5025324;28;20037;-77
2022/05/22 08:45:46;;;;;;;3.22;1.60;;;19.60;65.60;;;;;;5029611;28;20424;-77
2022/05/22 08:48:26;;;;;;;2.88;1.35;;;19.60;65.30;;;;;;5032928;28;20029;-77
2022/05/22 08:50:56;;;;;;;3.78;1.40;;;19.70;65.80;;;;;;5037812;28;21112;-77
2022/05/22 08:53:38;;;;;;;5.68;1.90;;;19.70;65.50;;;;;;5034364;28;20034;-77
2022/05/22 08:59:25;;;;;;;7.18;1.80;;;19.80;64.10;;;;;;5032664;28;20044;-77
2022/05/22 09:02:12;;;;;;;3.50;1.70;;;19.90;64.00;;;;;;5031832;28;20192;-77
2022/05/22 09:04:47;;;;;;;3.92;1.65;;;20.00;63.30;;;;;;5031452;28;20033;-77
2022/05/22 09:07:16;;;;;;;5.55;1.40;;;20.10;63.00;;;;;;5024067;28;20017;-77
2022/05/22 09:09:43;;;;;;;2.45;1.38;;;20.20;62.70;;;;;;5029613;28;20089;-77
2022/05/22 09:12:43;;;;;;;3.50;1.52;;;20.40;62.80;;;;;;5034011;28;20021;-77
2022/05/22 09:15:15;;;;;;;3.93;1.73;;;20.60;62.00;;;;;;5028790;28;20482;-77
2022/05/22 09:17:56;;;;;;;6.03;1.85;;;20.80;61.90;;;;;;5030660;28;20480;-77
2022/05/22 09:20:45;;;;;;;4.75;1.70;;;20.90;61.30;;;;;;5035232;28;20534;-76
2022/05/22 09:23:19;;;;;;;4.93;1.70;;;21.00;61.10;;;;;;5032473;28;20555;-77
2022/05/22 09:25:53;;;;;;;4.88;1.45;;;21.20;61.60;;;;;;5035093;28;20491;-75
2022/05/22 09:28:46;;;;;;;2.92;1.48;;;21.30;60.60;;;;;;5032668;28;20037;-76
2022/05/22 09:31:24;;;;;;;5.10;1.80;;;21.30;61.10;;;;;;5028153;28;20044;-76
2022/05/22 09:33:53;;;;;;;2.67;1.50;;;21.30;60.60;;;;;;5019881;28;20052;-78
2022/05/22 09:36:42;;;;;;;5.30;1.45;;;21.20;60.70;;;;;;5027936;28;20572;-75
2022/05/22 09:39:36;;;;;;;6.80;1.90;;;21.00;61.30;;;;;;5030977;28;20061;-76
2022/05/22 09:42:27;;;;;;;3.58;1.40;;;20.90;61.70;;;;;;5021588;28;20033;-84
2022/05/22 09:45:03;;;;;;;4.07;1.48;;;20.80;62.00;;;;;;5026441;28;20030;-79
2022/05/22 09:47:58;;;;;;;3.25;1.35;;;20.80;62.10;;;;;;5026910;28;20025;-83
2022/05/22 09:50:29;;;;;;;2.88;1.65;;;20.80;62.60;;;;;;5023355;28;20034;-77
2022/05/22 09:53:22;;;;;;;3.40;1.63;;;20.80;62.40;;;;;;5029391;28;20597;-76
2022/05/22 09:55:52;;;;;;;5.88;2.00;;;20.70;62.70;;;;;;5031343;28;20562;-75
2022/05/22 09:58:26;;;;;;;;;;;20.70;62.60;;;;;;5027323;28;20124;-75
2022/05/22 10:01:12;;;;;;;4.03;2.00;;;20.80;61.70;;;;;;5034014;28;20030;-75
2022/05/22 10:03:52;;;;;;;4.30;1.70;;;20.80;61.60;;;;;;5031032;28;20083;-75
2022/05/22 10:06:32;;;;;;;2.78;1.90;;;21.10;61.00;;;;;;5033982;28;20049;-76
2022/05/22 10:09:02;;;;;;;4.82;1.73;;;21.50;60.00;;;;;;5015763;28;20017;-77
2022/05/22 10:11:50;;;;;;;4.85;2.05;;;22.00;59.00;;;;;;5026338;28;20036;-75
2022/05/22 10:14:31;;;;;;;3.35;1.65;;;22.60;58.00;;;;;;5032679;28;20027;-78
2022/05/22 10:17:23;;;;;;;5.47;1.50;;;23.40;55.00;;;;;;5029088;28;20754;-76
2022/05/22 10:20:18;;;;;;;4.10;1.50;;;23.90;55.40;;;;;;5031867;28;20022;-76
2022/05/22 10:23:02;;;;;;;3.33;1.38;;;24.30;53.40;;;;;;5030788;28;20076;-76
2022/05/22 10:25:45;;;;;;;3.10;1.50;;;24.60;52.20;;;;;;5043602;28;20084;-77
2022/05/22 10:28:22;;;;;;;4.57;1.70;;;24.80;52.40;;;;;;5017914;28;20045;-77
2022/05/22 10:30:53;;;;;;;2.65;1.25;;;25.50;50.80;;;;;;5031097;28;20048;-77
2022/05/22 10:34:08;;;;;;;2.88;1.20;;;26.10;49.40;;;;;;5054697;28;20112;-77
2022/05/22 10:36:40;;;;;;;3.78;1.58;;;26.20;46.40;;;;;;4998077;28;20053;-75
2022/05/22 10:39:09;;;;;;;2.63;1.35;;;25.90;49.10;;;;;;5014741;28;20022;-75
2022/05/22 10:44:45;;;;;;;3.08;1.30;;;25.80;49.70;;;;;;5054572;28;20047;-75
2022/05/22 10:47:10;;;;;;;3.47;1.33;;;25.60;49.70;;;;;;5053654;28;20032;-75
2022/05/22 10:49:42;;;;;;;8.40;2.55;;;25.60;49.20;;;;;;5054729;28;20029;-75
2022/05/22 10:52:10;;;;;;;4.78;1.80;;;25.50;48.90;;;;;;5016970;28;20036;-74
2022/05/22 10:54:47;;;;;;;3.78;1.48;;;25.20;47.50;;;;;;5034410;28;20029;-82
2022/05/22 10:57:17;;;;;;;2.25;1.38;;;25.30;50.00;;;;;;5034459;28;20080;-79
2022/05/22 10:59:43;;;;;;;4.80;1.60;;;25.40;47.70;;;;;;5015455;28;20036;-79
2022/05/22 11:02:17;;;;;;;3.90;1.90;;;25.20;48.80;;;;;;5032826;28;20099;-86
2022/05/22 11:04:44;;;;;;;3.75;1.80;;;25.20;48.80;;;;;;5020617;28;20057;-83
2022/05/22 11:07:11;;;;;;;3.90;1.30;;;25.10;49.00;;;;;;5057436;28;20024;-77
2022/05/22 11:09:49;;;;;;;5.32;1.58;;;25.10;48.60;;;;;;5031932;28;20459;-76
2022/05/22 11:12:23;;;;;;;3.13;1.27;;;25.30;49.30;;;;;;5018726;28;20872;-75
2022/05/22 11:14:49;;;;;;;3.40;1.48;;;25.30;49.10;;;;;;5020780;28;20056;-75
2022/05/22 11:17:15;;;;;;;4.55;1.75;;;25.30;48.30;;;;;;5024427;28;20027;-75
2022/05/22 11:19:43;;;;;;;4.13;1.40;;;25.50;49.00;;;;;;5027140;28;20113;-75
2022/05/22 11:22:35;;;;;;;6.38;2.10;;;25.50;50.10;;;;;;5027174;28;20017;-75
2022/05/22 11:25:19;;;;;;;2.67;1.10;;;25.30;47.90;;;;;;5028098;28;20026;-74
2022/05/22 11:28:04;;;;;;;6.15;2.42;;;24.90;47.30;;;;;;5027781;28;20095;-75
2022/05/22 11:30:36;;;;;;;2.97;1.40;;;24.80;48.80;;;;;;5026474;28;20022;-75
2022/05/22 11:33:27;;;;;;;3.92;1.45;;;24.70;49.60;;;;;;5028162;28;20036;-75
2022/05/22 11:36:39;;;;;;;4.75;1.73;;;24.80;50.30;;;;;;5026679;28;20044;-75
2022/05/22 11:39:45;;;;;;;4.72;1.40;;;24.80;50.00;;;;;;5022930;28;20526;-75
2022/05/22 11:42:28;;;;;;;2.00;1.15;;;24.70;49.10;;;;;;5025852;28;20034;-75
2022/05/22 11:45:33;;;;;;;5.45;1.45;;;24.80;50.30;;;;;;5027260;28;20490;-74
2022/05/22 11:48:18;;;;;;;3.50;1.48;;;24.80;49.40;;;;;;5027707;28;20144;-75
2022/05/22 11:50:49;;;;;;;3.38;1.70;;;25.00;49.10;;;;;;5025425;28;20045;-75
2022/05/22 11:53:30;;;;;;;2.08;1.00;;;25.10;49.20;;;;;;5030739;28;20030;-77
2022/05/22 11:55:59;;;;;;;4.45;2.05;;;25.30;48.10;;;;;;5030814;28;20033;-75
2022/05/22 11:58:50;;;;;;;3.67;1.70;;;25.80;48.10;;;;;;5032162;28;20659;-75
2022/05/22 12:01:31;;;;;;;4.63;1.35;;;25.90;47.90;;;;;;5046689;28;20046;-75
2022/05/22 12:04:30;;;;;;;3.35;1.38;;;26.10;46.70;;;;;;5019256;28;20044;-75
2022/05/22 12:07:35;;;;;;;1.50;1.00;;;26.30;46.60;;;;;;5024825;28;20065;-75
2022/05/22 12:10:17;;;;;;;2.50;1.20;;;25.90;45.60;;;;;;5025828;28;20123;-75
2022/05/22 12:13:20;;;;;;;2.22;1.17;;;25.80;47.30;;;;;;5029859;28;20022;-75
2022/05/22 12:15:45;;;;;;;2.13;0.98;;;26.20;47.00;;;;;;5027991;28;20514;-75
2022/05/22 12:18:23;;;;;;;4.13;1.45;;;26.30;46.50;;;;;;5012433;28;20054;-75
2022/05/22 12:20:56;;;;;;;2.78;1.10;;;26.40;47.00;;;;;;5012813;28;20404;-80
2022/05/22 12:23:38;;;;;;;4.50;1.35;;;26.40;45.80;;;;;;5035216;28;20090;-75
2022/05/22 12:26:06;;;;;;;3.75;1.00;;;26.30;45.40;;;;;;5025932;28;20026;-75
2022/05/22 12:28:51;;;;;;;2.75;1.00;;;26.40;45.60;;;;;;5043481;28;20055;-74
2022/05/22 12:31:26;;;;;;;2.72;1.40;;;26.50;45.50;;;;;;5051576;28;20028;-75
2022/05/22 12:33:55;;;;;;;2.33;1.10;;;26.20;45.70;;;;;;5038156;28;20334;-74
2022/05/22 12:36:29;;;;;;;2.70;1.08;;;26.30;44.90;;;;;;5027253;28;20144;-75
2022/05/22 12:39:02;;;;;;;4.35;1.00;;;26.30;46.50;;;;;;5042574;28;20037;-75
2022/05/22 12:41:56;;;;;;;2.83;1.48;;;26.50;46.30;;;;;;5037366;28;20485;-75
2022/05/22 12:44:22;;;;;;;2.83;0.93;;;26.60;45.50;;;;;;5019297;28;20080;-74
2022/05/22 12:46:50;;;;;;;2.28;0.90;;;26.80;47.90;;;;;;5022058;28;20022;-75
2022/05/22 12:49:25;;;;;;;1.95;1.05;;;26.90;46.40;;;;;;5031420;28;20024;-75
2022/05/22 12:52:30;;;;;;;3.45;1.27;;;26.80;46.20;;;;;;5012044;28;20026;-75
2022/05/22 12:55:19;;;;;;;3.47;1.25;;;26.70;44.00;;;;;;5011202;28;20050;-75
2022/05/22 12:57:53;;;;;;;3.13;1.20;;;26.50;45.10;;;;;;5011874;28;20117;-74
2022/05/22 13:00:30;;;;;;;5.80;1.05;;;26.80;47.70;;;;;;5012099;28;20026;-74
2022/05/22 13:03:14;;;;;;;2.25;1.00;;;26.80;45.80;;;;;;5012112;28;20045;-75
2022/05/22 13:05:41;;;;;;;6.10;1.40;;;26.90;44.30;;;;;;5010426;28;20032;-75
2022/05/22 13:08:19;;;;;;;2.97;1.13;;;27.10;44.60;;;;;;5030510;28;20025;-75
2022/05/22 13:10:53;;;;;;;4.15;1.88;;;27.00;43.50;;;;;;5031439;28;20022;-75
2022/05/22 13:13:32;;;;;;;2.25;1.30;;;27.10;44.00;;;;;;5011895;28;20065;-75
2022/05/22 13:16:04;;;;;;;4.50;1.60;;;27.00;44.30;;;;;;5010272;28;20065;-74
2022/05/22 13:18:31;;;;;;;1.73;1.02;;;27.10;44.30;;;;;;5021900;28;20141;-75